sensor_id;sensor_type;location;lat;lon;timestamp;P1;durP1;ratioP1;P2;durP2;ratioP2
71622;SDS011;59473;53.214;5.728;2022-10-22T00:11:43;19.43;;;7.83;;
71622;SDS011;59473;53.214;5.728;2022-10-22T00:14:09;21.50;;;8.50;;
71622;SDS011;59473;53.214;5.728;2022-10-22T00:25:52;16.58;;;7.93;;
71622;SDS011;59473;53.214;5.728;2022-10-22T00:40:27;24.30;;;9.85;;
71622;SDS011;59473;53.214;5.728;2022-10-22T00:46:05;19.90;;;9.63;;
71622;SDS011;59473;53.214;5.728;2022-10-22T00:51:37;23.98;;;10.50;;
71622;SDS011;59473;53.214;5.728;2022-10-22T01:30:59;21.57;;;9.67;;
71622;SDS011;59473;53.214;5.728;2022-10-22T01:33:25;23.85;;;10.77;;
71622;SDS011;59473;53.214;5.728;2022-10-22T01:35:51;20.63;;;10.45;;
71622;SDS011;59473;53.214;5.728;2022-10-22T01:38:18;21.88;;;10.48;;
71622;SDS011;59473;53.214;5.728;2022-10-22T01:40:46;15.17;;;8.13;;
71622;SDS011;59473;53.214;5.728;2022-10-22T01:46:21;24.25;;;9.95;;
71622;SDS011;59473;53.214;5.728;2022-10-22T01:52:05;25.05;;;10.18;;
71622;SDS011;59473;53.214;5.728;2022-10-22T02:00:08;20.35;;;9.90;;
71622;SDS011;59473;53.214;5.728;2022-10-22T02:05:04;24.95;;;10.23;;
71622;SDS011;59473;53.214;5.728;2022-10-22T02:08:07;20.37;;;10.13;;
71622;SDS011;59473;53.214;5.728;2022-10-22T02:10:24;20.98;;;9.52;;
71622;SDS011;59473;53.214;5.728;2022-10-22T02:12:51;21.02;;;9.40;;
71622;SDS011;59473;53.214;5.728;2022-10-22T02:18:21;18.87;;;9.43;;
71622;SDS011;59473;53.214;5.728;2022-10-22T02:20:47;20.38;;;8.70;;
71622;SDS011;59473;53.214;5.728;2022-10-22T02:23:13;19.00;;;9.53;;
71622;SDS011;59473;53.214;5.728;2022-10-22T02:25:38;18.90;;;8.70;;
71622;SDS011;59473;53.214;5.728;2022-10-22T02:30:30;19.90;;;9.03;;
71622;SDS011;59473;53.214;5.728;2022-10-22T02:33:00;22.13;;;8.73;;
71622;SDS011;59473;53.214;5.728;2022-10-22T02:35:27;27.60;;;9.27;;
71622;SDS011;59473;53.214;5.728;2022-10-22T02:40:40;18.35;;;9.30;;
71622;SDS011;59473;53.214;5.728;2022-10-22T02:43:05;23.43;;;9.13;;
71622;SDS011;59473;53.214;5.728;2022-10-22T02:45:31;19.93;;;9.17;;
71622;SDS011;59473;53.214;5.728;2022-10-22T02:47:56;23.13;;;9.37;;
71622;SDS011;59473;53.214;5.728;2022-10-22T02:50:22;20.40;;;9.13;;
71622;SDS011;59473;53.214;5.728;2022-10-22T02:52:47;17.30;;;8.47;;
71622;SDS011;59473;53.214;5.728;2022-10-22T02:55:12;18.57;;;9.27;;
71622;SDS011;59473;53.214;5.728;2022-10-22T02:57:57;17.50;;;8.63;;
71622;SDS011;59473;53.214;5.728;2022-10-22T03:00:23;22.67;;;8.40;;
71622;SDS011;59473;53.214;5.728;2022-10-22T03:08:56;17.50;;;8.60;;
71622;SDS011;59473;53.214;5.728;2022-10-22T03:11:21;18.70;;;8.00;;
71622;SDS011;59473;53.214;5.728;2022-10-22T03:13:47;18.40;;;8.85;;
71622;SDS011;59473;53.214;5.728;2022-10-22T03:16:12;19.90;;;7.95;;
71622;SDS011;59473;53.214;5.728;2022-10-22T03:18:49;18.80;;;8.23;;
71622;SDS011;59473;53.214;5.728;2022-10-22T03:30:33;21.02;;;8.70;;
71622;SDS011;59473;53.214;5.728;2022-10-22T03:32:58;16.27;;;7.93;;
71622;SDS011;59473;53.214;5.728;2022-10-22T03:35:23;14.73;;;7.03;;
71622;SDS011;59473;53.214;5.728;2022-10-22T03:37:49;22.15;;;8.23;;
71622;SDS011;59473;53.214;5.728;2022-10-22T03:40:14;21.80;;;7.70;;
71622;SDS011;59473;53.214;5.728;2022-10-22T03:42:39;20.70;;;7.93;;
71622;SDS011;59473;53.214;5.728;2022-10-22T03:45:05;16.50;;;8.15;;
71622;SDS011;59473;53.214;5.728;2022-10-22T03:47:31;14.50;;;7.23;;
71622;SDS011;59473;53.214;5.728;2022-10-22T03:52:58;16.42;;;7.72;;
71622;SDS011;59473;53.214;5.728;2022-10-22T03:55:24;20.40;;;7.23;;
71622;SDS011;59473;53.214;5.728;2022-10-22T03:57:49;15.77;;;7.50;;
71622;SDS011;59473;53.214;5.728;2022-10-22T04:00:14;21.50;;;7.87;;
71622;SDS011;59473;53.214;5.728;2022-10-22T04:02:40;17.03;;;7.63;;
71622;SDS011;59473;53.214;5.728;2022-10-22T04:05:05;17.47;;;6.90;;
71622;SDS011;59473;53.214;5.728;2022-10-22T04:07:31;16.42;;;7.05;;
71622;SDS011;59473;53.214;5.728;2022-10-22T04:09:56;20.10;;;7.00;;
71622;SDS011;59473;53.214;5.728;2022-10-22T04:12:21;18.53;;;6.90;;
71622;SDS011;59473;53.214;5.728;2022-10-22T04:14:46;16.70;;;7.20;;
71622;SDS011;59473;53.214;5.728;2022-10-22T04:17:11;20.20;;;7.33;;
71622;SDS011;59473;53.214;5.728;2022-10-22T04:19:37;17.20;;;7.20;;
71622;SDS011;59473;53.214;5.728;2022-10-22T04:22:02;22.63;;;7.10;;
71622;SDS011;59473;53.214;5.728;2022-10-22T04:24:28;14.63;;;6.60;;
71622;SDS011;59473;53.214;5.728;2022-10-22T04:26:54;19.50;;;7.27;;
71622;SDS011;59473;53.214;5.728;2022-10-22T04:29:19;21.27;;;6.38;;
71622;SDS011;59473;53.214;5.728;2022-10-22T04:31:44;18.40;;;7.10;;
71622;SDS011;59473;53.214;5.728;2022-10-22T04:34:10;16.97;;;6.80;;
71622;SDS011;59473;53.214;5.728;2022-10-22T04:36:35;15.83;;;6.47;;
71622;SDS011;59473;53.214;5.728;2022-10-22T04:39:00;19.27;;;7.30;;
71622;SDS011;59473;53.214;5.728;2022-10-22T04:41:27;17.17;;;7.50;;
71622;SDS011;59473;53.214;5.728;2022-10-22T04:43:53;20.63;;;6.40;;
71622;SDS011;59473;53.214;5.728;2022-10-22T04:46:18;16.52;;;6.90;;
71622;SDS011;59473;53.214;5.728;2022-10-22T04:48:44;18.53;;;6.80;;
71622;SDS011;59473;53.214;5.728;2022-10-22T04:51:11;16.88;;;6.68;;
71622;SDS011;59473;53.214;5.728;2022-10-22T04:53:37;14.23;;;6.43;;
71622;SDS011;59473;53.214;5.728;2022-10-22T04:56:08;16.50;;;6.33;;
71622;SDS011;59473;53.214;5.728;2022-10-22T04:58:33;18.63;;;6.07;;
71622;SDS011;59473;53.214;5.728;2022-10-22T05:07:01;23.23;;;6.97;;
71622;SDS011;59473;53.214;5.728;2022-10-22T05:09:28;15.50;;;6.07;;
71622;SDS011;59473;53.214;5.728;2022-10-22T05:11:53;16.88;;;5.90;;
71622;SDS011;59473;53.214;5.728;2022-10-22T05:14:20;16.67;;;6.10;;
71622;SDS011;59473;53.214;5.728;2022-10-22T05:16:45;16.45;;;5.97;;
71622;SDS011;59473;53.214;5.728;2022-10-22T05:19:28;19.53;;;7.07;;
71622;SDS011;59473;53.214;5.728;2022-10-22T05:21:54;15.82;;;6.47;;
71622;SDS011;59473;53.214;5.728;2022-10-22T05:24:20;14.82;;;6.45;;
71622;SDS011;59473;53.214;5.728;2022-10-22T05:26:47;14.57;;;6.00;;
71622;SDS011;59473;53.214;5.728;2022-10-22T05:29:12;20.42;;;6.45;;
71622;SDS011;59473;53.214;5.728;2022-10-22T05:31:38;20.43;;;6.87;;
71622;SDS011;59473;53.214;5.728;2022-10-22T05:34:03;19.10;;;6.20;;
71622;SDS011;59473;53.214;5.728;2022-10-22T05:36:28;16.07;;;5.97;;
71622;SDS011;59473;53.214;5.728;2022-10-22T05:38:53;18.80;;;5.90;;
71622;SDS011;59473;53.214;5.728;2022-10-22T05:41:20;15.70;;;6.83;;
71622;SDS011;59473;53.214;5.728;2022-10-22T05:43:45;15.60;;;6.07;;
71622;SDS011;59473;53.214;5.728;2022-10-22T05:46:11;15.53;;;5.93;;
71622;SDS011;59473;53.214;5.728;2022-10-22T05:48:37;14.57;;;5.78;;
71622;SDS011;59473;53.214;5.728;2022-10-22T05:51:10;17.48;;;6.00;;
71622;SDS011;59473;53.214;5.728;2022-10-22T05:53:36;14.00;;;5.67;;
71622;SDS011;59473;53.214;5.728;2022-10-22T05:56:03;14.68;;;6.18;;
71622;SDS011;59473;53.214;5.728;2022-10-22T05:58:28;22.75;;;6.60;;
71622;SDS011;59473;53.214;5.728;2022-10-22T06:00:54;15.50;;;5.60;;
71622;SDS011;59473;53.214;5.728;2022-10-22T06:03:19;15.18;;;5.97;;
71622;SDS011;59473;53.214;5.728;2022-10-22T06:05:44;17.15;;;5.82;;
71622;SDS011;59473;53.214;5.728;2022-10-22T06:08:10;13.07;;;5.68;;
71622;SDS011;59473;53.214;5.728;2022-10-22T06:10:37;12.98;;;5.72;;
71622;SDS011;59473;53.214;5.728;2022-10-22T06:13:05;15.07;;;5.68;;
71622;SDS011;59473;53.214;5.728;2022-10-22T06:15:32;13.45;;;5.55;;
71622;SDS011;59473;53.214;5.728;2022-10-22T06:17:57;17.17;;;6.13;;
71622;SDS011;59473;53.214;5.728;2022-10-22T06:20:22;16.17;;;6.10;;
71622;SDS011;59473;53.214;5.728;2022-10-22T06:22:48;18.87;;;6.30;;
71622;SDS011;59473;53.214;5.728;2022-10-22T06:25:13;12.63;;;5.40;;
71622;SDS011;59473;53.214;5.728;2022-10-22T06:27:38;14.93;;;5.63;;
71622;SDS011;59473;53.214;5.728;2022-10-22T06:30:04;13.37;;;5.03;;
71622;SDS011;59473;53.214;5.728;2022-10-22T06:32:29;13.50;;;5.40;;
71622;SDS011;59473;53.214;5.728;2022-10-22T06:34:54;10.57;;;5.37;;
71622;SDS011;59473;53.214;5.728;2022-10-22T06:37:20;17.30;;;5.67;;
71622;SDS011;59473;53.214;5.728;2022-10-22T06:39:45;22.77;;;6.23;;
71622;SDS011;59473;53.214;5.728;2022-10-22T06:42:10;17.17;;;5.43;;
71622;SDS011;59473;53.214;5.728;2022-10-22T06:44:35;18.17;;;5.80;;
71622;SDS011;59473;53.214;5.728;2022-10-22T06:47:01;14.40;;;5.70;;
71622;SDS011;59473;53.214;5.728;2022-10-22T06:49:26;16.87;;;5.90;;
71622;SDS011;59473;53.214;5.728;2022-10-22T06:51:51;15.17;;;5.60;;
71622;SDS011;59473;53.214;5.728;2022-10-22T06:54:17;17.10;;;5.57;;
71622;SDS011;59473;53.214;5.728;2022-10-22T06:56:42;17.97;;;5.53;;
71622;SDS011;59473;53.214;5.728;2022-10-22T06:59:08;20.37;;;5.80;;
71622;SDS011;59473;53.214;5.728;2022-10-22T07:01:33;17.07;;;5.87;;
71622;SDS011;59473;53.214;5.728;2022-10-22T07:03:59;18.10;;;6.00;;
71622;SDS011;59473;53.214;5.728;2022-10-22T07:06:25;16.13;;;5.43;;
71622;SDS011;59473;53.214;5.728;2022-10-22T07:08:52;19.00;;;5.40;;
71622;SDS011;59473;53.214;5.728;2022-10-22T07:11:18;19.45;;;5.25;;
71622;SDS011;59473;53.214;5.728;2022-10-22T07:13:44;20.13;;;5.40;;
71622;SDS011;59473;53.214;5.728;2022-10-22T07:16:10;17.53;;;5.20;;
71622;SDS011;59473;53.214;5.728;2022-10-22T07:18:36;13.30;;;5.33;;
71622;SDS011;59473;53.214;5.728;2022-10-22T07:21:02;15.30;;;5.93;;
71622;SDS011;59473;53.214;5.728;2022-10-22T07:23:27;18.08;;;5.93;;
71622;SDS011;59473;53.214;5.728;2022-10-22T07:25:53;18.27;;;4.90;;
71622;SDS011;59473;53.214;5.728;2022-10-22T07:28:18;17.63;;;5.40;;
71622;SDS011;59473;53.214;5.728;2022-10-22T07:30:44;19.37;;;5.60;;
71622;SDS011;59473;53.214;5.728;2022-10-22T07:33:09;18.83;;;6.13;;
71622;SDS011;59473;53.214;5.728;2022-10-22T07:35:35;11.27;;;4.93;;
71622;SDS011;59473;53.214;5.728;2022-10-22T07:38:01;17.58;;;5.20;;
71622;SDS011;59473;53.214;5.728;2022-10-22T07:40:26;19.77;;;5.30;;
71622;SDS011;59473;53.214;5.728;2022-10-22T07:42:51;21.87;;;5.83;;
71622;SDS011;59473;53.214;5.728;2022-10-22T07:45:17;20.37;;;5.13;;
71622;SDS011;59473;53.214;5.728;2022-10-22T07:47:42;16.33;;;5.37;;
71622;SDS011;59473;53.214;5.728;2022-10-22T07:50:07;16.00;;;5.00;;
71622;SDS011;59473;53.214;5.728;2022-10-22T07:52:33;16.23;;;5.30;;
71622;SDS011;59473;53.214;5.728;2022-10-22T07:54:58;18.93;;;6.17;;
71622;SDS011;59473;53.214;5.728;2022-10-22T07:57:23;16.03;;;5.23;;
71622;SDS011;59473;53.214;5.728;2022-10-22T07:59:49;15.13;;;4.70;;
71622;SDS011;59473;53.214;5.728;2022-10-22T08:02:14;9.35;;;3.50;;
71622;SDS011;59473;53.214;5.728;2022-10-22T08:04:39;17.03;;;5.43;;
71622;SDS011;59473;53.214;5.728;2022-10-22T08:07:05;11.50;;;4.30;;
71622;SDS011;59473;53.214;5.728;2022-10-22T08:09:30;17.40;;;4.47;;
71622;SDS011;59473;53.214;5.728;2022-10-22T08:11:55;16.10;;;4.57;;
71622;SDS011;59473;53.214;5.728;2022-10-22T08:14:21;19.60;;;4.43;;
71622;SDS011;59473;53.214;5.728;2022-10-22T08:16:46;20.60;;;4.40;;
71622;SDS011;59473;53.214;5.728;2022-10-22T08:19:11;12.80;;;3.90;;
71622;SDS011;59473;53.214;5.728;2022-10-22T08:21:38;13.93;;;4.30;;
71622;SDS011;59473;53.214;5.728;2022-10-22T08:24:03;15.37;;;5.03;;
71622;SDS011;59473;53.214;5.728;2022-10-22T08:26:28;11.70;;;4.07;;
71622;SDS011;59473;53.214;5.728;2022-10-22T08:28:53;16.33;;;4.70;;
71622;SDS011;59473;53.214;5.728;2022-10-22T08:31:19;18.83;;;4.33;;
71622;SDS011;59473;53.214;5.728;2022-10-22T08:33:44;16.60;;;3.47;;
71622;SDS011;59473;53.214;5.728;2022-10-22T08:36:09;17.57;;;4.30;;
71622;SDS011;59473;53.214;5.728;2022-10-22T08:38:34;12.80;;;3.70;;
71622;SDS011;59473;53.214;5.728;2022-10-22T08:41:11;14.43;;;3.97;;
71622;SDS011;59473;53.214;5.728;2022-10-22T08:43:43;11.10;;;3.80;;
71622;SDS011;59473;53.214;5.728;2022-10-22T08:46:16;13.85;;;3.25;;
71622;SDS011;59473;53.214;5.728;2022-10-22T08:48:45;11.95;;;3.55;;
71622;SDS011;59473;53.214;5.728;2022-10-22T08:51:14;15.50;;;3.80;;
71622;SDS011;59473;53.214;5.728;2022-10-22T08:53:42;12.98;;;3.40;;
71622;SDS011;59473;53.214;5.728;2022-10-22T08:56:09;9.67;;;3.13;;
71622;SDS011;59473;53.214;5.728;2022-10-22T09:01:10;15.77;;;3.30;;
71622;SDS011;59473;53.214;5.728;2022-10-22T09:03:41;12.18;;;3.20;;
71622;SDS011;59473;53.214;5.728;2022-10-22T09:06:17;11.95;;;3.50;;
71622;SDS011;59473;53.214;5.728;2022-10-22T09:08:43;13.52;;;3.10;;
71622;SDS011;59473;53.214;5.728;2022-10-22T09:13:35;13.53;;;3.50;;
71622;SDS011;59473;53.214;5.728;2022-10-22T09:16:08;17.57;;;3.23;;
71622;SDS011;59473;53.214;5.728;2022-10-22T09:18:45;17.42;;;3.20;;
71622;SDS011;59473;53.214;5.728;2022-10-22T09:23:49;16.77;;;3.15;;
71622;SDS011;59473;53.214;5.728;2022-10-22T09:26:18;10.32;;;2.95;;
71622;SDS011;59473;53.214;5.728;2022-10-22T09:28:48;9.30;;;2.60;;
71622;SDS011;59473;53.214;5.728;2022-10-22T09:31:13;14.77;;;3.65;;
71622;SDS011;59473;53.214;5.728;2022-10-22T09:33:39;17.23;;;3.60;;
71622;SDS011;59473;53.214;5.728;2022-10-22T09:36:05;15.27;;;3.63;;
71622;SDS011;59473;53.214;5.728;2022-10-22T09:38:38;13.10;;;3.40;;
71622;SDS011;59473;53.214;5.728;2022-10-22T09:41:04;13.27;;;2.77;;
71622;SDS011;59473;53.214;5.728;2022-10-22T09:43:30;17.02;;;3.03;;
71622;SDS011;59473;53.214;5.728;2022-10-22T09:45:59;11.73;;;2.80;;
71622;SDS011;59473;53.214;5.728;2022-10-22T09:48:30;18.40;;;3.22;;
71622;SDS011;59473;53.214;5.728;2022-10-22T09:53:36;15.07;;;3.15;;
71622;SDS011;59473;53.214;5.728;2022-10-22T09:56:06;16.50;;;3.67;;
71622;SDS011;59473;53.214;5.728;2022-10-22T09:58:40;14.60;;;3.83;;
71622;SDS011;59473;53.214;5.728;2022-10-22T10:01:05;17.92;;;4.10;;
71622;SDS011;59473;53.214;5.728;2022-10-22T10:03:31;15.23;;;4.13;;
71622;SDS011;59473;53.214;5.728;2022-10-22T10:05:57;14.93;;;3.97;;
71622;SDS011;59473;53.214;5.728;2022-10-22T10:08:23;14.15;;;4.32;;
71622;SDS011;59473;53.214;5.728;2022-10-22T10:10:50;14.60;;;4.50;;
71622;SDS011;59473;53.214;5.728;2022-10-22T10:13:20;15.30;;;4.05;;
71622;SDS011;59473;53.214;5.728;2022-10-22T10:24:17;16.42;;;3.95;;
71622;SDS011;59473;53.214;5.728;2022-10-22T10:26:22;15.73;;;3.50;;
71622;SDS011;59473;53.214;5.728;2022-10-22T10:31:38;10.77;;;3.05;;
71622;SDS011;59473;53.214;5.728;2022-10-22T10:36:46;13.40;;;3.50;;
71622;SDS011;59473;53.214;5.728;2022-10-22T10:49:34;9.63;;;4.32;;
71622;SDS011;59473;53.214;5.728;2022-10-22T10:54:45;14.07;;;4.70;;
71622;SDS011;59473;53.214;5.728;2022-10-22T10:57:15;13.73;;;4.70;;
71622;SDS011;59473;53.214;5.728;2022-10-22T11:07:24;19.92;;;6.20;;
71622;SDS011;59473;53.214;5.728;2022-10-22T11:09:53;13.02;;;5.30;;
71622;SDS011;59473;53.214;5.728;2022-10-22T11:12:21;14.48;;;5.05;;
71622;SDS011;59473;53.214;5.728;2022-10-22T11:17:16;13.30;;;5.33;;
71622;SDS011;59473;53.214;5.728;2022-10-22T11:22:36;15.20;;;4.00;;
71622;SDS011;59473;53.214;5.728;2022-10-22T11:25:12;15.77;;;4.10;;
71622;SDS011;59473;53.214;5.728;2022-10-22T11:30:18;13.67;;;3.47;;
71622;SDS011;59473;53.214;5.728;2022-10-22T11:32:45;13.10;;;3.38;;
71622;SDS011;59473;53.214;5.728;2022-10-22T11:35:12;18.80;;;3.95;;
71622;SDS011;59473;53.214;5.728;2022-10-22T11:37:38;11.75;;;3.78;;
71622;SDS011;59473;53.214;5.728;2022-10-22T11:40:05;15.17;;;4.07;;
71622;SDS011;59473;53.214;5.728;2022-10-22T11:42:36;19.25;;;5.35;;
71622;SDS011;59473;53.214;5.728;2022-10-22T11:47:28;17.20;;;3.97;;
71622;SDS011;59473;53.214;5.728;2022-10-22T11:49:57;16.42;;;4.30;;
71622;SDS011;59473;53.214;5.728;2022-10-22T11:54:55;21.97;;;3.93;;
71622;SDS011;59473;53.214;5.728;2022-10-22T11:57:27;18.55;;;3.63;;
71622;SDS011;59473;53.214;5.728;2022-10-22T11:59:56;13.70;;;3.38;;
71622;SDS011;59473;53.214;5.728;2022-10-22T12:02:43;14.18;;;3.88;;
71622;SDS011;59473;53.214;5.728;2022-10-22T12:05:18;13.18;;;3.95;;
71622;SDS011;59473;53.214;5.728;2022-10-22T12:07:53;15.20;;;3.63;;
71622;SDS011;59473;53.214;5.728;2022-10-22T12:10:21;14.43;;;3.25;;
71622;SDS011;59473;53.214;5.728;2022-10-22T12:13:09;13.85;;;2.95;;
71622;SDS011;59473;53.214;5.728;2022-10-22T12:15:39;11.73;;;2.15;;
71622;SDS011;59473;53.214;5.728;2022-10-22T12:18:10;14.50;;;2.60;;
71622;SDS011;59473;53.214;5.728;2022-10-22T12:20:36;11.83;;;2.47;;
71622;SDS011;59473;53.214;5.728;2022-10-22T12:23:01;10.30;;;2.00;;
71622;SDS011;59473;53.214;5.728;2022-10-22T12:25:29;14.77;;;2.03;;
71622;SDS011;59473;53.214;5.728;2022-10-22T12:27:56;13.68;;;1.83;;
71622;SDS011;59473;53.214;5.728;2022-10-22T12:30:34;11.70;;;2.10;;
71622;SDS011;59473;53.214;5.728;2022-10-22T12:33:02;12.45;;;1.73;;
71622;SDS011;59473;53.214;5.728;2022-10-22T12:35:29;12.98;;;1.85;;
71622;SDS011;59473;53.214;5.728;2022-10-22T12:38:09;10.60;;;1.40;;
71622;SDS011;59473;53.214;5.728;2022-10-22T12:40:38;11.02;;;1.25;;
71622;SDS011;59473;53.214;5.728;2022-10-22T12:45:36;13.02;;;1.70;;
71622;SDS011;59473;53.214;5.728;2022-10-22T12:48:03;10.85;;;1.50;;
71622;SDS011;59473;53.214;5.728;2022-10-22T12:50:33;15.52;;;1.50;;
71622;SDS011;59473;53.214;5.728;2022-10-22T12:53:03;15.45;;;2.00;;
71622;SDS011;59473;53.214;5.728;2022-10-22T12:55:28;10.90;;;1.73;;
71622;SDS011;59473;53.214;5.728;2022-10-22T12:57:55;10.73;;;1.55;;
71622;SDS011;59473;53.214;5.728;2022-10-22T13:00:32;10.40;;;1.37;;
71622;SDS011;59473;53.214;5.728;2022-10-22T13:02:58;10.03;;;1.23;;
71622;SDS011;59473;53.214;5.728;2022-10-22T13:05:25;8.77;;;1.30;;
71622;SDS011;59473;53.214;5.728;2022-10-22T13:08:01;11.68;;;1.63;;
71622;SDS011;59473;53.214;5.728;2022-10-22T13:10:32;17.15;;;1.67;;
71622;SDS011;59473;53.214;5.728;2022-10-22T13:12:57;10.85;;;1.45;;
71622;SDS011;59473;53.214;5.728;2022-10-22T13:17:51;9.13;;;1.35;;
71622;SDS011;59473;53.214;5.728;2022-10-22T13:20:25;9.65;;;1.17;;
71622;SDS011;59473;53.214;5.728;2022-10-22T13:25:31;11.88;;;1.52;;
71622;SDS011;59473;53.214;5.728;2022-10-22T13:27:57;5.97;;;1.02;;
71622;SDS011;59473;53.214;5.728;2022-10-22T13:30:33;9.75;;;1.60;;
71622;SDS011;59473;53.214;5.728;2022-10-22T13:35:25;10.20;;;1.10;;
71622;SDS011;59473;53.214;5.728;2022-10-22T13:37:51;6.53;;;1.33;;
71622;SDS011;59473;53.214;5.728;2022-10-22T13:40:16;8.57;;;0.90;;
71622;SDS011;59473;53.214;5.728;2022-10-22T13:42:42;4.68;;;0.93;;
71622;SDS011;59473;53.214;5.728;2022-10-22T13:45:07;8.32;;;1.45;;
71622;SDS011;59473;53.214;5.728;2022-10-22T13:47:32;8.52;;;1.58;;
71622;SDS011;59473;53.214;5.728;2022-10-22T13:49:58;12.40;;;1.48;;
71622;SDS011;59473;53.214;5.728;2022-10-22T13:52:35;9.40;;;1.33;;
71622;SDS011;59473;53.214;5.728;2022-10-22T13:55:11;6.45;;;1.40;;
71622;SDS011;59473;53.214;5.728;2022-10-22T13:57:36;10.45;;;0.90;;
71622;SDS011;59473;53.214;5.728;2022-10-22T14:00:02;8.93;;;1.10;;
71622;SDS011;59473;53.214;5.728;2022-10-22T14:02:27;9.50;;;1.30;;
71622;SDS011;59473;53.214;5.728;2022-10-22T14:04:53;13.50;;;1.40;;
71622;SDS011;59473;53.214;5.728;2022-10-22T14:07:18;8.10;;;1.02;;
71622;SDS011;59473;53.214;5.728;2022-10-22T14:09:44;10.27;;;1.37;;
71622;SDS011;59473;53.214;5.728;2022-10-22T14:12:10;6.27;;;1.10;;
71622;SDS011;59473;53.214;5.728;2022-10-22T14:14:35;9.57;;;1.42;;
71622;SDS011;59473;53.214;5.728;2022-10-22T14:17:02;9.10;;;1.45;;
71622;SDS011;59473;53.214;5.728;2022-10-22T14:19:27;9.63;;;1.23;;
71622;SDS011;59473;53.214;5.728;2022-10-22T14:21:53;11.52;;;1.80;;
71622;SDS011;59473;53.214;5.728;2022-10-22T14:24:19;8.50;;;1.50;;
71622;SDS011;59473;53.214;5.728;2022-10-22T14:26:44;12.43;;;1.57;;
71622;SDS011;59473;53.214;5.728;2022-10-22T14:29:09;10.63;;;1.70;;
71622;SDS011;59473;53.214;5.728;2022-10-22T14:31:35;9.87;;;1.10;;
71622;SDS011;59473;53.214;5.728;2022-10-22T14:34:01;10.75;;;1.58;;
71622;SDS011;59473;53.214;5.728;2022-10-22T14:36:26;13.80;;;1.70;;
71622;SDS011;59473;53.214;5.728;2022-10-22T14:38:52;13.43;;;1.70;;
71622;SDS011;59473;53.214;5.728;2022-10-22T14:41:18;18.23;;;1.97;;
71622;SDS011;59473;53.214;5.728;2022-10-22T14:43:44;14.93;;;2.17;;
71622;SDS011;59473;53.214;5.728;2022-10-22T14:46:13;16.20;;;2.27;;
71622;SDS011;59473;53.214;5.728;2022-10-22T14:48:38;16.23;;;2.40;;
71622;SDS011;59473;53.214;5.728;2022-10-22T14:51:04;11.75;;;1.90;;
71622;SDS011;59473;53.214;5.728;2022-10-22T14:53:29;21.70;;;2.45;;
71622;SDS011;59473;53.214;5.728;2022-10-22T14:55:55;14.90;;;2.13;;
71622;SDS011;59473;53.214;5.728;2022-10-22T14:58:23;14.57;;;2.37;;
71622;SDS011;59473;53.214;5.728;2022-10-22T15:00:48;17.13;;;2.10;;
71622;SDS011;59473;53.214;5.728;2022-10-22T15:03:13;19.30;;;2.93;;
71622;SDS011;59473;53.214;5.728;2022-10-22T15:05:39;17.03;;;2.30;;
71622;SDS011;59473;53.214;5.728;2022-10-22T15:08:07;19.80;;;2.67;;
71622;SDS011;59473;53.214;5.728;2022-10-22T15:10:33;21.83;;;2.77;;
71622;SDS011;59473;53.214;5.728;2022-10-22T15:12:58;19.10;;;2.87;;
71622;SDS011;59473;53.214;5.728;2022-10-22T15:15:23;16.70;;;2.37;;
71622;SDS011;59473;53.214;5.728;2022-10-22T15:17:48;14.17;;;2.50;;
71622;SDS011;59473;53.214;5.728;2022-10-22T15:20:13;31.50;;;5.07;;
71622;SDS011;59473;53.214;5.728;2022-10-22T15:22:39;15.60;;;1.90;;
71622;SDS011;59473;53.214;5.728;2022-10-22T15:25:05;23.40;;;2.60;;
71622;SDS011;59473;53.214;5.728;2022-10-22T15:27:30;14.05;;;2.00;;
71622;SDS011;59473;53.214;5.728;2022-10-22T15:29:55;23.73;;;4.13;;
71622;SDS011;59473;53.214;5.728;2022-10-22T15:32:23;19.38;;;2.85;;
71622;SDS011;59473;53.214;5.728;2022-10-22T15:34:48;29.60;;;3.80;;
71622;SDS011;59473;53.214;5.728;2022-10-22T15:37:16;20.75;;;3.15;;
71622;SDS011;59473;53.214;5.728;2022-10-22T15:39:41;19.20;;;2.90;;
71622;SDS011;59473;53.214;5.728;2022-10-22T15:42:07;16.52;;;3.95;;
71622;SDS011;59473;53.214;5.728;2022-10-22T15:44:33;19.93;;;2.60;;
71622;SDS011;59473;53.214;5.728;2022-10-22T15:46:58;21.03;;;2.47;;
71622;SDS011;59473;53.214;5.728;2022-10-22T15:49:25;19.08;;;2.17;;
71622;SDS011;59473;53.214;5.728;2022-10-22T15:51:50;21.85;;;2.30;;
71622;SDS011;59473;53.214;5.728;2022-10-22T15:54:17;21.00;;;2.80;;
71622;SDS011;59473;53.214;5.728;2022-10-22T15:56:43;23.15;;;2.28;;
71622;SDS011;59473;53.214;5.728;2022-10-22T15:59:09;18.20;;;2.58;;
71622;SDS011;59473;53.214;5.728;2022-10-22T16:01:34;22.98;;;2.63;;
71622;SDS011;59473;53.214;5.728;2022-10-22T16:04:00;20.03;;;2.63;;
71622;SDS011;59473;53.214;5.728;2022-10-22T16:06:34;17.60;;;2.20;;
71622;SDS011;59473;53.214;5.728;2022-10-22T16:09:00;24.95;;;2.95;;
71622;SDS011;59473;53.214;5.728;2022-10-22T16:11:26;23.83;;;2.88;;
71622;SDS011;59473;53.214;5.728;2022-10-22T16:13:52;20.65;;;3.03;;
71622;SDS011;59473;53.214;5.728;2022-10-22T16:16:17;23.77;;;3.00;;
71622;SDS011;59473;53.214;5.728;2022-10-22T16:18:43;20.00;;;2.90;;
71622;SDS011;59473;53.214;5.728;2022-10-22T16:21:10;26.00;;;2.90;;
71622;SDS011;59473;53.214;5.728;2022-10-22T16:23:36;31.50;;;3.53;;
71622;SDS011;59473;53.214;5.728;2022-10-22T16:26:01;31.13;;;2.77;;
71622;SDS011;59473;53.214;5.728;2022-10-22T16:28:26;18.67;;;2.53;;
71622;SDS011;59473;53.214;5.728;2022-10-22T16:30:51;20.33;;;4.43;;
71622;SDS011;59473;53.214;5.728;2022-10-22T16:33:17;24.42;;;3.55;;
71622;SDS011;59473;53.214;5.728;2022-10-22T16:35:42;20.27;;;3.63;;
71622;SDS011;59473;53.214;5.728;2022-10-22T16:38:07;31.38;;;4.10;;
71622;SDS011;59473;53.214;5.728;2022-10-22T16:40:34;29.80;;;3.10;;
71622;SDS011;59473;53.214;5.728;2022-10-22T16:42:59;21.87;;;2.67;;
71622;SDS011;59473;53.214;5.728;2022-10-22T16:45:24;20.03;;;2.50;;
71622;SDS011;59473;53.214;5.728;2022-10-22T16:47:49;27.77;;;2.90;;
71622;SDS011;59473;53.214;5.728;2022-10-22T16:50:15;22.33;;;3.60;;
71622;SDS011;59473;53.214;5.728;2022-10-22T16:52:40;37.87;;;3.23;;
71622;SDS011;59473;53.214;5.728;2022-10-22T16:55:05;33.33;;;3.60;;
71622;SDS011;59473;53.214;5.728;2022-10-22T16:57:31;15.27;;;2.72;;
71622;SDS011;59473;53.214;5.728;2022-10-22T16:59:57;24.90;;;3.10;;
71622;SDS011;59473;53.214;5.728;2022-10-22T17:02:23;37.08;;;4.38;;
71622;SDS011;59473;53.214;5.728;2022-10-22T17:04:48;23.02;;;3.05;;
71622;SDS011;59473;53.214;5.728;2022-10-22T17:07:13;21.07;;;3.07;;
71622;SDS011;59473;53.214;5.728;2022-10-22T17:09:38;24.50;;;2.72;;
71622;SDS011;59473;53.214;5.728;2022-10-22T17:12:03;17.23;;;2.65;;
71622;SDS011;59473;53.214;5.728;2022-10-22T17:14:29;24.40;;;3.00;;
71622;SDS011;59473;53.214;5.728;2022-10-22T17:16:54;20.33;;;3.30;;
71622;SDS011;59473;53.214;5.728;2022-10-22T17:19:20;23.27;;;3.80;;
71622;SDS011;59473;53.214;5.728;2022-10-22T17:21:45;28.33;;;3.53;;
71622;SDS011;59473;53.214;5.728;2022-10-22T17:24:12;27.70;;;3.33;;
71622;SDS011;59473;53.214;5.728;2022-10-22T17:26:38;20.00;;;3.03;;
71622;SDS011;59473;53.214;5.728;2022-10-22T17:29:03;17.38;;;3.40;;
71622;SDS011;59473;53.214;5.728;2022-10-22T17:31:29;20.60;;;3.40;;
71622;SDS011;59473;53.214;5.728;2022-10-22T17:33:56;18.47;;;2.70;;
71622;SDS011;59473;53.214;5.728;2022-10-22T17:36:22;19.00;;;2.45;;
71622;SDS011;59473;53.214;5.728;2022-10-22T17:38:49;23.60;;;3.40;;
71622;SDS011;59473;53.214;5.728;2022-10-22T17:41:16;19.42;;;3.17;;
71622;SDS011;59473;53.214;5.728;2022-10-22T17:43:41;20.73;;;3.35;;